Time;durP1;ratioP1;P1;durP2;ratioP2;P2;SDS_P1;SDS_P2;PMS_P1;PMS_P2;Temp;Humidity;BMP_temperature;BMP_pressure;BME280_temperature;BME280_humidity;BME280_pressure;Samples;Min_cycle;Max_cycle;Signal;HPM_P1;HPM_P2
2021/10/07 00:00:39;;;;;;;11.35;8.70;;;9.20;99.90;;;;;;2105117;28;20139;-68
2021/10/07 00:01:40;;;;;;;12.07;8.88;;;9.20;99.90;;;;;;2104799;28;20398;-69
2021/10/07 00:02:41;;;;;;;11.75;8.65;;;9.10;99.90;;;;;;2105214;28;20081;-69
2021/10/07 00:03:41;;;;;;;11.85;8.45;;;9.10;99.90;;;;;;2105159;28;20036;-69
2021/10/07 00:04:42;;;;;;;9.93;8.20;;;9.10;99.90;;;;;;2105068;28;20140;-68
2021/10/07 00:05:42;;;;;;;10.85;8.55;;;9.10;99.90;;;;;;2105113;28;20107;-68
2021/10/07 00:06:43;;;;;;;11.27;8.40;;;9.10;99.90;;;;;;2104988;28;20514;-68
2021/10/07 00:07:43;;;;;;;11.40;8.25;;;9.10;99.90;;;;;;2105131;28;20030;-68
2021/10/07 00:08:44;;;;;;;11.48;8.73;;;9.00;99.90;;;;;;2104361;28;20486;-68
2021/10/07 00:09:45;;;;;;;12.48;8.77;;;9.00;99.90;;;;;;2104515;28;20438;-68
2021/10/07 00:10:45;;;;;;;12.93;8.75;;;9.00;99.90;;;;;;2105136;28;20016;-68
2021/10/07 00:11:46;;;;;;;11.40;8.63;;;9.00;99.90;;;;;;2104718;28;20020;-68
2021/10/07 00:12:47;;;;;;;11.88;8.38;;;8.90;99.90;;;;;;2105208;28;20105;-69
2021/10/07 00:13:47;;;;;;;11.93;8.68;;;8.90;99.90;;;;;;2105188;28;20475;-68
2021/10/07 00:14:48;;;;;;;12.85;8.32;;;8.90;99.90;;;;;;2104334;28;20033;-68
2021/10/07 00:15:49;;;;;;;13.13;8.15;;;8.90;99.90;;;;;;2104565;28;20051;-68
2021/10/07 00:16:50;;;;;;;10.60;8.80;;;8.90;99.90;;;;;;2105178;28;20515;-68
2021/10/07 00:17:51;;;;;;;11.85;8.55;;;8.90;99.90;;;;;;2105261;28;20047;-68
2021/10/07 00:18:52;;;;;;;10.40;8.55;;;8.90;99.90;;;;;;2105222;28;20032;-68
2021/10/07 00:19:53;;;;;;;11.30;8.70;;;8.90;99.90;;;;;;2105067;28;20387;-68
2021/10/07 00:20:54;;;;;;;10.43;8.88;;;8.90;99.90;;;;;;2105166;28;20036;-69
2021/10/07 00:21:55;;;;;;;13.38;8.98;;;8.80;99.90;;;;;;2105018;28;20036;-68
2021/10/07 00:22:56;;;;;;;12.40;8.90;;;8.80;99.90;;;;;;2105197;28;20059;-68
2021/10/07 00:24:09;;;;;;;10.65;8.63;;;8.80;99.90;;;;;;2105220;28;20035;-68
2021/10/07 00:25:11;;;;;;;11.25;8.80;;;8.80;99.90;;;;;;2105162;28;20693;-68
2021/10/07 00:26:11;;;;;;;12.70;8.68;;;8.80;99.90;;;;;;2104873;28;20510;-68
2021/10/07 00:27:12;;;;;;;12.15;8.43;;;8.80;99.90;;;;;;2105144;28;20067;-68
2021/10/07 00:28:13;;;;;;;11.00;8.32;;;8.70;99.90;;;;;;2104485;28;20020;-68
2021/10/07 00:30:25;;;;;;;13.07;9.10;;;8.70;99.90;;;;;;2105154;28;20026;-68
2021/10/07 00:31:30;;;;;;;15.00;8.75;;;8.70;99.90;;;;;;2104016;28;20028;-68
2021/10/07 00:32:37;;;;;;;11.55;8.40;;;8.70;99.90;;;;;;2104540;28;20029;-68
2021/10/07 00:36:35;;;;;;;10.95;8.27;;;8.70;99.90;;;;;;2105286;28;20025;-68
2021/10/07 00:39:14;;;;;;;13.57;8.27;;;8.70;99.90;;;;;;2105621;28;20035;-68
2021/10/07 00:40:15;;;;;;;12.65;8.48;;;8.70;99.90;;;;;;2105701;28;20459;-68
2021/10/07 00:41:15;;;;;;;11.43;8.32;;;8.70;99.90;;;;;;2104912;28;20032;-68
2021/10/07 00:42:16;;;;;;;10.40;7.88;;;8.70;99.90;;;;;;2105169;28;20032;-68
2021/10/07 00:43:17;;;;;;;11.18;7.97;;;8.70;99.90;;;;;;2105269;28;20028;-69
2021/10/07 00:44:19;;;;;;;11.05;8.20;;;8.60;99.90;;;;;;2106671;28;20103;-69
2021/10/07 00:45:19;;;;;;;10.05;8.02;;;8.60;99.90;;;;;;2105732;28;20032;-69
2021/10/07 00:46:20;;;;;;;11.50;8.23;;;8.60;99.90;;;;;;2106090;28;20594;-68
2021/10/07 00:47:20;;;;;;;10.20;8.10;;;8.60;99.90;;;;;;2106133;28;20391;-69
2021/10/07 00:48:22;;;;;;;12.93;8.23;;;8.60;99.90;;;;;;2106614;28;20024;-69
2021/10/07 00:49:23;;;;;;;13.70;8.10;;;8.60;99.90;;;;;;2106697;28;20024;-69
2021/10/07 00:50:23;;;;;;;11.55;8.05;;;8.60;99.90;;;;;;2106854;28;20024;-69
2021/10/07 00:51:24;;;;;;;11.32;7.60;;;8.60;99.90;;;;;;2106261;28;20027;-69
2021/10/07 00:52:25;;;;;;;9.10;7.45;;;8.60;99.90;;;;;;2106646;28;20025;-69
2021/10/07 00:53:25;;;;;;;10.02;7.70;;;8.60;99.90;;;;;;2106600;28;20028;-69
2021/10/07 00:54:27;;;;;;;10.98;8.13;;;8.60;99.90;;;;;;2106565;28;20028;-69
2021/10/07 00:55:28;;;;;;;11.15;8.00;;;8.50;99.90;;;;;;2106546;28;20395;-69
2021/10/07 00:56:29;;;;;;;11.20;8.07;;;8.50;99.90;;;;;;2105912;28;20020;-69
2021/10/07 00:57:29;;;;;;;11.68;8.27;;;8.50;99.90;;;;;;2097606;28;20036;-69
2021/10/07 00:58:31;;;;;;;13.15;8.00;;;8.50;99.90;;;;;;2105943;28;20055;-69
2021/10/07 00:59:35;;;;;;;10.90;7.90;;;8.50;99.90;;;;;;2106557;28;20055;-69
2021/10/07 01:00:36;;;;;;;9.90;7.75;;;8.50;99.90;;;;;;2106432;28;20036;-69
2021/10/07 01:01:36;;;;;;;10.23;7.50;;;8.50;99.90;;;;;;2106046;28;20038;-69
2021/10/07 01:02:37;;;;;;;10.82;7.63;;;8.50;99.90;;;;;;2106598;28;20036;-69
2021/10/07 01:03:38;;;;;;;9.75;7.50;;;8.50;99.90;;;;;;2106511;28;20089;-69
2021/10/07 01:04:39;;;;;;;11.13;7.50;;;8.50;99.90;;;;;;2106423;28;20074;-69
2021/10/07 01:05:39;;;;;;;9.90;7.68;;;8.50;99.90;;;;;;2106495;28;20151;-69
2021/10/07 01:06:42;;;;;;;8.73;6.90;;;8.40;99.90;;;;;;2105801;28;20032;-69
2021/10/07 01:07:42;;;;;;;10.10;7.45;;;8.40;99.90;;;;;;2105724;28;20047;-69
2021/10/07 01:08:43;;;;;;;10.32;7.68;;;8.50;99.90;;;;;;2105903;28;20078;-69
2021/10/07 01:09:45;;;;;;;10.35;7.88;;;8.40;99.90;;;;;;2097507;28;20025;-69
2021/10/07 01:10:46;;;;;;;10.45;7.40;;;8.40;99.90;;;;;;2105737;28;20379;-69
2021/10/07 01:11:46;;;;;;;9.35;7.40;;;8.40;99.90;;;;;;2106193;28;20038;-69
2021/10/07 01:12:47;;;;;;;11.38;7.53;;;8.40;99.90;;;;;;2106570;28;20063;-70
2021/10/07 01:13:48;;;;;;;10.07;7.45;;;8.40;99.90;;;;;;2106463;28;20016;-69
2021/10/07 01:14:58;;;;;;;9.95;7.60;;;8.40;99.90;;;;;;2106602;28;20107;-69
2021/10/07 01:16:02;;;;;;;11.18;8.18;;;8.40;99.90;;;;;;2106591;28;20036;-69
2021/10/07 01:17:03;;;;;;;8.88;7.50;;;8.40;99.90;;;;;;2106649;28;20039;-69
2021/10/07 01:18:04;;;;;;;11.00;7.85;;;8.40;99.90;;;;;;2106289;28;20024;-69
2021/10/07 01:19:04;;;;;;;9.25;7.68;;;8.40;99.90;;;;;;2106476;28;20032;-69
2021/10/07 01:20:07;;;;;;;10.38;7.65;;;8.40;99.90;;;;;;2106498;28;20039;-73
2021/10/07 01:21:10;;;;;;;11.13;7.90;;;8.30;99.90;;;;;;2106202;28;20024;-69
2021/10/07 01:22:12;;;;;;;9.50;7.70;;;8.40;99.90;;;;;;2106327;28;20172;-69
2021/10/07 01:23:13;;;;;;;9.80;7.63;;;8.30;99.90;;;;;;2105631;28;20032;-69
2021/10/07 01:24:14;;;;;;;10.07;7.72;;;8.30;99.90;;;;;;2105769;28;20064;-70
2021/10/07 01:25:14;;;;;;;8.98;7.28;;;8.30;99.90;;;;;;2106186;28;20070;-69
2021/10/07 01:26:17;;;;;;;11.00;7.47;;;8.30;99.90;;;;;;2106275;28;20686;-69
2021/10/07 01:27:21;;;;;;;9.90;7.78;;;8.30;99.90;;;;;;2106402;28;20023;-69
2021/10/07 01:28:21;;;;;;;9.43;7.80;;;8.30;99.90;;;;;;2106267;28;20426;-69
2021/10/07 01:29:22;;;;;;;10.82;8.20;;;8.30;99.90;;;;;;2106304;28;20119;-68
2021/10/07 01:30:23;;;;;;;10.38;8.10;;;8.30;99.90;;;;;;2106346;28;20059;-69
2021/10/07 01:31:23;;;;;;;10.38;8.05;;;8.30;99.90;;;;;;2105819;28;20024;-68
2021/10/07 01:32:24;;;;;;;10.82;7.90;;;8.20;99.90;;;;;;2105363;28;20039;-69
2021/10/07 01:33:25;;;;;;;10.15;7.93;;;8.20;99.90;;;;;;2105683;28;20024;-69
2021/10/07 01:34:27;;;;;;;11.73;7.90;;;8.20;99.90;;;;;;2106290;28;20008;-69
2021/10/07 01:35:28;;;;;;;11.55;8.10;;;8.20;99.90;;;;;;2106200;28;20032;-69
2021/10/07 01:36:28;;;;;;;10.30;7.95;;;8.20;99.90;;;;;;2106195;28;20028;-69
2021/10/07 01:37:29;;;;;;;10.88;7.65;;;8.20;99.90;;;;;;2106262;28;20024;-69
2021/10/07 01:38:30;;;;;;;11.48;7.75;;;8.20;99.90;;;;;;2106235;28;20072;-69
2021/10/07 01:39:30;;;;;;;11.05;8.23;;;8.20;99.90;;;;;;2106213;28;20506;-69
2021/10/07 01:40:31;;;;;;;10.15;8.07;;;8.20;99.90;;;;;;2106147;28;20020;-69
2021/10/07 01:41:31;;;;;;;10.40;8.63;;;8.10;99.90;;;;;;2105709;28;20488;-69
2021/10/07 01:42:32;;;;;;;12.57;8.73;;;8.20;99.90;;;;;;2106250;28;20386;-69
2021/10/07 01:43:33;;;;;;;9.98;7.95;;;8.10;99.90;;;;;;2106078;28;20526;-69
2021/10/07 01:44:34;;;;;;;10.18;7.47;;;8.10;99.90;;;;;;2106205;28;20067;-69
2021/10/07 01:45:34;;;;;;;11.35;8.02;;;8.10;99.90;;;;;;2105886;28;20028;-69
2021/10/07 01:46:35;;;;;;;10.95;7.90;;;8.10;99.90;;;;;;2106213;28;20032;-68
2021/10/07 01:47:36;;;;;;;12.35;7.63;;;8.10;99.90;;;;;;2106328;28;20487;-68
2021/10/07 01:48:36;;;;;;;9.95;7.43;;;8.10;99.90;;;;;;2106219;28;20063;-69
2021/10/07 01:49:37;;;;;;;9.65;7.43;;;8.10;99.90;;;;;;2106254;28;20066;-69
2021/10/07 01:50:37;;;;;;;9.50;7.72;;;8.10;99.90;;;;;;2106109;28;20039;-69
2021/10/07 01:51:38;;;;;;;11.65;7.78;;;8.10;99.90;;;;;;2105192;28;20028;-69
2021/10/07 01:52:39;;;;;;;9.57;7.20;;;8.10;99.90;;;;;;2105555;28;20376;-69
2021/10/07 01:53:40;;;;;;;9.27;7.25;;;8.00;99.90;;;;;;2106111;28;20063;-69
2021/10/07 01:54:40;;;;;;;9.68;7.28;;;8.00;99.90;;;;;;2105757;28;20036;-69
2021/10/07 01:55:41;;;;;;;10.02;7.00;;;8.00;99.90;;;;;;2106040;28;20036;-69
2021/10/07 01:56:42;;;;;;;10.48;7.72;;;8.00;99.90;;;;;;2106366;28;20043;-69
2021/10/07 01:57:43;;;;;;;11.45;7.32;;;8.00;99.90;;;;;;2106617;28;20088;-69
2021/10/07 01:58:43;;;;;;;9.70;7.05;;;8.00;99.90;;;;;;2106447;28;20552;-69
2021/10/07 01:59:44;;;;;;;9.60;7.38;;;7.90;99.90;;;;;;2107064;28;20028;-69
2021/10/07 02:00:44;;;;;;;9.27;7.35;;;7.90;99.90;;;;;;2107199;28;20039;-69
2021/10/07 02:01:45;;;;;;;7.80;6.90;;;7.90;99.90;;;;;;2106850;28;20036;-69
2021/10/07 02:02:45;;;;;;;9.80;7.45;;;7.90;99.90;;;;;;2107119;28;20044;-69
2021/10/07 02:03:46;;;;;;;9.13;7.28;;;7.90;99.90;;;;;;2106528;28;20035;-69
2021/10/07 02:04:47;;;;;;;11.60;7.93;;;7.90;99.90;;;;;;2106191;28;20059;-69
2021/10/07 02:05:47;;;;;;;10.40;7.65;;;7.80;99.90;;;;;;2106015;28;20088;-69
2021/10/07 02:06:48;;;;;;;10.68;7.72;;;7.80;99.90;;;;;;2106064;28;20396;-69
2021/10/07 02:07:48;;;;;;;11.15;7.72;;;7.80;99.90;;;;;;2106159;28;20016;-69
2021/10/07 02:08:49;;;;;;;10.30;7.28;;;7.80;99.90;;;;;;2105920;28;20499;-69
2021/10/07 02:09:50;;;;;;;9.13;6.82;;;7.80;99.90;;;;;;2105347;28;20016;-69
2021/10/07 02:10:50;;;;;;;9.38;7.25;;;7.80;99.90;;;;;;2105260;28;20031;-69
2021/10/07 02:11:51;;;;;;;9.18;6.97;;;7.80;99.90;;;;;;2105667;28;20129;-69
2021/10/07 02:12:51;;;;;;;10.63;7.10;;;7.80;99.90;;;;;;2105921;28;20020;-69
2021/10/07 02:13:52;;;;;;;8.13;6.65;;;7.80;99.90;;;;;;2106032;28;20111;-69
2021/10/07 02:14:53;;;;;;;10.13;7.07;;;7.80;99.90;;;;;;2106073;28;20042;-68
2021/10/07 02:15:53;;;;;;;9.98;6.90;;;7.80;99.90;;;;;;2106304;28;20107;-69
2021/10/07 02:16:54;;;;;;;10.35;6.90;;;7.80;99.90;;;;;;2105584;28;20036;-69
2021/10/07 02:17:54;;;;;;;9.10;6.90;;;7.80;99.90;;;;;;2105751;28;20118;-69
2021/10/07 02:18:55;;;;;;;7.43;6.60;;;7.80;99.90;;;;;;2105532;28;20028;-68
2021/10/07 02:19:56;;;;;;;7.80;6.57;;;7.80;99.90;;;;;;2105480;28;20031;-68
2021/10/07 02:20:56;;;;;;;9.07;6.50;;;7.80;99.90;;;;;;2105970;28;20384;-68
2021/10/07 02:21:57;;;;;;;9.63;6.30;;;7.80;99.90;;;;;;2105546;28;20121;-68
2021/10/07 02:22:57;;;;;;;8.90;6.60;;;7.80;99.90;;;;;;2106027;28;20090;-68
2021/10/07 02:23:58;;;;;;;8.55;6.60;;;7.80;99.90;;;;;;2105892;28;20036;-67
2021/10/07 02:24:59;;;;;;;10.18;7.13;;;7.80;99.90;;;;;;2105942;28;20060;-67
2021/10/07 02:26:00;;;;;;;9.43;6.85;;;7.80;99.90;;;;;;2106151;28;20747;-68
2021/10/07 02:27:00;;;;;;;10.32;7.13;;;7.80;99.90;;;;;;2105565;28;20034;-67
2021/10/07 02:28:01;;;;;;;8.85;6.80;;;7.80;99.90;;;;;;2105590;28;20683;-67
2021/10/07 02:29:02;;;;;;;9.98;6.55;;;7.80;99.90;;;;;;2106077;28;20032;-67
2021/10/07 02:30:09;;;;;;;10.52;6.55;;;7.80;99.90;;;;;;2105775;28;20063;-68
2021/10/07 02:31:11;;;;;;;10.70;7.22;;;7.70;99.90;;;;;;2105594;28;20032;-68
2021/10/07 02:32:13;;;;;;;8.95;6.60;;;7.70;99.90;;;;;;2105928;28;20028;-70
2021/10/07 02:33:14;;;;;;;8.63;6.53;;;7.70;99.90;;;;;;2096963;28;20025;-67
2021/10/07 02:34:15;;;;;;;9.73;6.75;;;7.70;99.90;;;;;;2096971;28;20037;-69
2021/10/07 02:35:16;;;;;;;9.00;6.55;;;7.70;99.90;;;;;;2096715;28;20063;-67
2021/10/07 02:36:16;;;;;;;9.07;7.00;;;7.70;99.90;;;;;;2105218;28;20142;-67
2021/10/07 02:37:17;;;;;;;8.35;6.72;;;7.70;99.90;;;;;;2105829;28;20082;-68
2021/10/07 02:38:18;;;;;;;8.20;6.63;;;7.70;99.90;;;;;;2105770;28;20020;-68
2021/10/07 02:39:18;;;;;;;10.68;6.53;;;7.70;99.90;;;;;;2105195;28;20074;-67
2021/10/07 02:40:19;;;;;;;12.13;6.93;;;7.70;99.90;;;;;;2105286;28;20035;-67
2021/10/07 02:41:21;;;;;;;10.57;6.97;;;7.70;99.90;;;;;;2105478;28;20039;-67
2021/10/07 02:42:22;;;;;;;8.77;6.38;;;7.60;99.90;;;;;;2105715;28;20024;-69
2021/10/07 02:43:22;;;;;;;10.00;6.45;;;7.60;99.90;;;;;;2105749;28;20073;-68
2021/10/07 02:44:23;;;;;;;9.57;6.70;;;7.60;99.90;;;;;;2105650;28;20024;-67
2021/10/07 02:45:24;;;;;;;9.75;6.63;;;7.60;99.90;;;;;;2105904;28;20034;-67
2021/10/07 02:46:25;;;;;;;11.52;6.43;;;7.60;99.90;;;;;;2105182;28;20433;-69
2021/10/07 02:47:25;;;;;;;9.75;6.15;;;7.60;99.90;;;;;;2105163;28;20024;-68
2021/10/07 02:48:26;;;;;;;8.05;6.50;;;7.60;99.90;;;;;;2105818;28;20055;-68
2021/10/07 02:49:28;;;;;;;8.57;6.35;;;7.60;99.90;;;;;;2105722;28;20491;-69
2021/10/07 02:50:29;;;;;;;8.40;6.50;;;7.60;99.90;;;;;;2105835;28;20012;-67
2021/10/07 02:51:30;;;;;;;8.20;6.20;;;7.60;99.90;;;;;;2105223;28;20022;-70
2021/10/07 02:52:31;;;;;;;9.07;6.57;;;7.60;99.90;;;;;;2105728;28;20505;-69
2021/10/07 02:53:32;;;;;;;10.07;6.97;;;7.60;99.90;;;;;;2105664;28;20059;-69
2021/10/07 02:54:33;;;;;;;8.93;6.47;;;7.60;99.90;;;;;;2105714;28;20019;-70
2021/10/07 02:55:34;;;;;;;9.43;7.10;;;7.60;99.90;;;;;;2105489;28;20052;-70
2021/10/07 02:56:34;;;;;;;10.02;7.00;;;7.50;99.90;;;;;;2105030;28;20020;-69
2021/10/07 02:57:35;;;;;;;9.40;7.07;;;7.50;99.90;;;;;;2105024;28;20039;-67
2021/10/07 02:58:36;;;;;;;8.95;6.95;;;7.50;99.90;;;;;;2105728;28;20032;-70
2021/10/07 02:59:37;;;;;;;9.15;6.88;;;7.50;99.90;;;;;;2105596;28;20028;-68
2021/10/07 03:00:38;;;;;;;9.73;7.00;;;7.50;99.90;;;;;;2105596;28;20106;-68
2021/10/07 03:01:39;;;;;;;9.18;6.60;;;7.50;99.90;;;;;;2105236;28;20119;-69
2021/10/07 03:02:39;;;;;;;9.88;7.07;;;7.50;99.90;;;;;;2105729;28;20073;-69
2021/10/07 03:03:40;;;;;;;10.55;7.07;;;7.50;99.90;;;;;;2105669;28;20807;-70
2021/10/07 03:04:42;;;;;;;8.68;6.63;;;7.50;99.90;;;;;;2105360;28;20050;-69
2021/10/07 03:05:42;;;;;;;9.07;6.93;;;7.50;99.90;;;;;;2105294;28;20070;-70
2021/10/07 03:06:43;;;;;;;8.63;6.50;;;7.50;99.90;;;;;;2104995;28;20100;-69
2021/10/07 03:07:44;;;;;;;8.55;6.75;;;7.50;99.90;;;;;;2105624;28;20132;-68
2021/10/07 03:08:44;;;;;;;8.60;6.47;;;7.60;99.90;;;;;;2105583;28;20604;-68
2021/10/07 03:09:45;;;;;;;11.13;6.65;;;7.50;99.90;;;;;;2105795;28;20070;-68
2021/10/07 03:10:46;;;;;;;9.02;6.45;;;7.50;99.90;;;;;;2106195;28;20498;-67
2021/10/07 03:11:46;;;;;;;8.48;6.70;;;7.50;99.90;;;;;;2106225;28;20016;-70
2021/10/07 03:12:47;;;;;;;7.93;6.35;;;7.50;99.90;;;;;;2106696;28;20024;-68
2021/10/07 03:13:48;;;;;;;8.50;6.95;;;7.50;99.90;;;;;;2106625;28;20020;-69
2021/10/07 03:14:48;;;;;;;9.13;6.63;;;7.50;99.90;;;;;;2107437;28;20027;-69
2021/10/07 03:15:49;;;;;;;10.05;6.70;;;7.50;99.90;;;;;;2107481;28;20028;-70
2021/10/07 03:16:50;;;;;;;8.13;6.50;;;7.40;99.90;;;;;;2107493;28;20517;-68
2021/10/07 03:17:50;;;;;;;7.70;6.30;;;7.50;99.90;;;;;;2107764;28;20097;-68
2021/10/07 03:18:51;;;;;;;9.13;6.50;;;7.40;99.90;;;;;;2107619;28;20028;-68
2021/10/07 03:19:51;;;;;;;8.68;6.50;;;7.50;99.90;;;;;;2107206;28;20031;-68
2021/10/07 03:20:56;;;;;;;8.60;7.07;;;7.50;99.90;;;;;;2107397;28;20051;-68
2021/10/07 03:21:56;;;;;;;9.43;6.13;;;7.50;99.90;;;;;;2106501;28;20053;-69
2021/10/07 03:22:57;;;;;;;8.77;6.35;;;7.40;99.90;;;;;;2105415;28;20031;-68
2021/10/07 03:23:57;;;;;;;9.80;6.80;;;7.40;99.90;;;;;;2105631;28;20127;-68
2021/10/07 03:24:58;;;;;;;10.98;6.45;;;7.40;99.90;;;;;;2105376;28;20491;-68
2021/10/07 03:25:58;;;;;;;9.32;6.60;;;7.40;99.90;;;;;;2105535;28;20121;-68
2021/10/07 03:27:01;;;;;;;8.88;6.10;;;7.40;99.90;;;;;;2105666;28;20032;-68
2021/10/07 03:28:02;;;;;;;7.30;6.28;;;7.40;99.90;;;;;;2105310;28;20568;-68
2021/10/07 03:29:02;;;;;;;8.07;6.05;;;7.40;99.90;;;;;;2105649;28;20090;-68
2021/10/07 03:30:04;;;;;;;8.88;6.05;;;7.40;99.90;;;;;;2105577;28;20122;-68
2021/10/07 03:31:05;;;;;;;8.23;6.00;;;7.40;99.90;;;;;;2105450;28;20055;-68
2021/10/07 03:32:06;;;;;;;8.93;6.30;;;7.40;99.90;;;;;;2105285;28;20399;-68
2021/10/07 03:33:08;;;;;;;8.85;6.38;;;7.40;99.90;;;;;;2105664;28;20035;-70
2021/10/07 03:34:08;;;;;;;9.60;6.20;;;7.40;99.90;;;;;;2105564;28;20023;-71
2021/10/07 03:35:09;;;;;;;9.63;6.63;;;7.40;99.90;;;;;;2105292;28;20364;-69
2021/10/07 03:36:10;;;;;;;8.15;6.47;;;7.40;99.90;;;;;;2105510;28;20024;-67
2021/10/07 03:37:10;;;;;;;8.68;6.30;;;7.40;99.90;;;;;;2105424;28;20904;-70
2021/10/07 03:38:11;;;;;;;8.05;6.00;;;7.40;99.90;;;;;;2105436;28;20120;-70
2021/10/07 03:39:12;;;;;;;7.40;5.82;;;7.40;99.90;;;;;;2104850;28;20100;-68
2021/10/07 03:40:13;;;;;;;8.05;6.22;;;7.40;99.90;;;;;;2104923;28;20032;-68
2021/10/07 03:41:13;;;;;;;8.45;6.25;;;7.40;99.90;;;;;;2104982;28;20729;-68
2021/10/07 03:42:14;;;;;;;8.95;6.40;;;7.30;99.90;;;;;;2104729;28;20035;-68
2021/10/07 03:43:14;;;;;;;10.52;6.57;;;7.30;99.90;;;;;;2096553;28;20044;-68
2021/10/07 03:44:15;;;;;;;8.05;6.13;;;7.30;99.90;;;;;;2104698;28;20050;-68
2021/10/07 03:45:15;;;;;;;8.25;6.10;;;7.30;99.90;;;;;;2105572;28;20039;-68
2021/10/07 03:46:17;;;;;;;8.82;6.20;;;7.30;99.90;;;;;;2105653;28;20028;-68
2021/10/07 03:47:17;;;;;;;7.07;5.88;;;7.30;99.90;;;;;;2105325;28;20016;-68
2021/10/07 03:48:18;;;;;;;8.85;6.45;;;7.30;99.90;;;;;;2105056;28;20132;-68
2021/10/07 03:49:18;;;;;;;8.00;5.93;;;7.30;99.90;;;;;;2104607;28;20050;-68
2021/10/07 03:50:19;;;;;;;8.40;6.18;;;7.30;99.90;;;;;;2104855;28;20023;-68
2021/10/07 03:51:20;;;;;;;8.45;6.40;;;7.30;99.90;;;;;;2104830;28;20031;-67
2021/10/07 03:52:20;;;;;;;9.60;6.10;;;7.30;99.90;;;;;;2105396;28;20062;-67
2021/10/07 03:53:23;;;;;;;8.57;6.22;;;7.30;99.90;;;;;;2105307;28;20020;-68
2021/10/07 03:54:23;;;;;;;9.50;6.18;;;7.30;99.90;;;;;;2105392;28;20028;-68
2021/10/07 03:55:24;;;;;;;8.55;6.30;;;7.20;99.90;;;;;;2105287;28;20035;-69
2021/10/07 03:56:24;;;;;;;7.93;6.50;;;7.20;99.90;;;;;;2105404;28;20020;-68
2021/10/07 03:57:26;;;;;;;8.52;6.50;;;7.20;99.90;;;;;;2105168;28;20059;-68
2021/10/07 03:58:27;;;;;;;7.80;6.40;;;7.20;99.90;;;;;;2105310;28;20469;-68
2021/10/07 03:59:27;;;;;;;8.85;6.75;;;7.20;99.90;;;;;;2105407;28;20507;-68
2021/10/07 04:00:28;;;;;;;9.10;6.72;;;7.20;99.90;;;;;;2105422;28;20062;-68
2021/10/07 04:01:29;;;;;;;10.63;6.97;;;7.20;99.90;;;;;;2104941;28;20024;-69
2021/10/07 04:02:30;;;;;;;9.57;6.70;;;7.20;99.90;;;;;;2105226;28;20032;-69
2021/10/07 04:03:31;;;;;;;10.07;7.05;;;7.20;99.90;;;;;;2105199;28;20523;-69
2021/10/07 04:04:32;;;;;;;9.05;7.03;;;7.10;99.90;;;;;;2105247;28;20062;-69
2021/10/07 04:05:33;;;;;;;10.88;7.22;;;7.10;99.90;;;;;;2105135;28;20032;-68
2021/10/07 04:06:33;;;;;;;10.88;7.00;;;7.10;99.90;;;;;;2105296;28;20020;-68
2021/10/07 04:07:34;;;;;;;10.18;6.43;;;7.10;99.90;;;;;;2105266;28;20131;-68
2021/10/07 04:08:35;;;;;;;9.23;6.60;;;7.20;99.90;;;;;;2105423;28;20032;-68
2021/10/07 04:09:35;;;;;;;8.75;6.57;;;7.10;99.90;;;;;;2105271;28;20032;-68
2021/10/07 04:10:36;;;;;;;9.20;6.75;;;7.20;99.90;;;;;;2105252;28;20153;-68
2021/10/07 04:11:37;;;;;;;8.50;6.70;;;7.20;99.90;;;;;;2104979;28;20111;-68
2021/10/07 04:12:38;;;;;;;9.60;6.55;;;7.10;99.90;;;;;;2105280;28;20369;-68
2021/10/07 04:13:38;;;;;;;9.93;6.85;;;7.10;99.90;;;;;;2105096;28;20039;-68
2021/10/07 04:14:39;;;;;;;10.55;7.10;;;7.10;99.90;;;;;;2105347;28;20028;-68
2021/10/07 04:15:39;;;;;;;8.38;6.82;;;7.20;99.90;;;;;;2105180;28;20052;-68
2021/10/07 04:16:40;;;;;;;9.60;6.80;;;7.10;99.90;;;;;;2105232;28;20027;-69
2021/10/07 04:17:42;;;;;;;9.15;7.15;;;7.10;99.90;;;;;;2106010;28;20386;-68
2021/10/07 04:18:44;;;;;;;11.40;7.35;;;7.10;99.90;;;;;;2106937;28;20043;-68
2021/10/07 04:19:44;;;;;;;10.75;7.80;;;7.10;99.90;;;;;;2107006;28;20036;-68
2021/10/07 04:20:46;;;;;;;11.23;7.10;;;7.10;99.90;;;;;;2106898;28;20901;-68
2021/10/07 04:21:47;;;;;;;9.13;6.88;;;7.10;99.90;;;;;;2106558;28;20027;-68
2021/10/07 04:22:48;;;;;;;10.07;6.78;;;7.10;99.90;;;;;;2106888;28;20028;-68
2021/10/07 04:23:48;;;;;;;9.90;6.97;;;7.10;99.90;;;;;;2106931;28;20085;-68
2021/10/07 04:24:49;;;;;;;8.75;6.80;;;7.10;99.90;;;;;;2106989;28;20114;-68
2021/10/07 04:25:50;;;;;;;10.60;7.15;;;7.10;99.90;;;;;;2106781;28;20170;-68
2021/10/07 04:26:50;;;;;;;7.63;6.53;;;7.10;99.90;;;;;;2106728;28;20032;-68
2021/10/07 04:27:56;;;;;;;12.68;7.45;;;7.10;99.90;;;;;;2106866;28;20685;-68
2021/10/07 04:28:57;;;;;;;12.63;7.10;;;7.10;99.90;;;;;;2106917;28;20032;-68
2021/10/07 04:30:03;;;;;;;10.65;7.35;;;7.10;99.90;;;;;;2106951;28;20028;-68
2021/10/07 04:31:04;;;;;;;8.70;7.00;;;7.00;99.90;;;;;;2106671;28;20027;-68
2021/10/07 04:32:04;;;;;;;10.70;7.18;;;7.00;99.90;;;;;;2106521;28;20051;-68
2021/10/07 04:33:09;;;;;;;10.15;7.00;;;7.00;99.90;;;;;;2106804;28;20028;-68
2021/10/07 04:34:10;;;;;;;8.32;6.85;;;7.00;99.90;;;;;;2106895;28;20024;-68
2021/10/07 04:35:11;;;;;;;10.82;6.97;;;7.00;99.90;;;;;;2106943;28;20066;-68
2021/10/07 04:36:11;;;;;;;9.70;7.40;;;7.00;99.90;;;;;;2106646;28;20076;-68
2021/10/07 04:37:12;;;;;;;9.70;6.70;;;7.00;99.90;;;;;;2106738;28;20103;-68
2021/10/07 04:38:13;;;;;;;9.88;6.70;;;7.00;99.90;;;;;;2106737;28;20055;-68
2021/10/07 04:39:13;;;;;;;8.93;6.72;;;7.00;99.90;;;;;;2106844;28;20062;-68
2021/10/07 04:40:14;;;;;;;11.98;7.22;;;7.00;99.90;;;;;;2106314;28;20035;-68
2021/10/07 04:41:15;;;;;;;9.15;6.72;;;7.00;99.90;;;;;;2105670;28;20097;-68
2021/10/07 04:42:15;;;;;;;9.38;7.03;;;7.00;99.90;;;;;;2106808;28;20526;-68
2021/10/07 04:43:17;;;;;;;9.60;6.80;;;7.00;99.90;;;;;;2106732;28;20023;-69
2021/10/07 04:44:18;;;;;;;9.63;6.38;;;7.00;99.90;;;;;;2106706;28;20402;-69
2021/10/07 04:45:18;;;;;;;8.20;6.80;;;7.00;99.90;;;;;;2106729;28;20047;-68
2021/10/07 04:46:22;;;;;;;12.80;8.60;;;7.00;99.90;;;;;;2106865;28;20703;-68
2021/10/07 04:47:22;;;;;;;15.80;9.05;;;7.00;99.90;;;;;;2106740;28;20024;-69
2021/10/07 04:48:23;;;;;;;12.00;8.82;;;6.90;99.90;;;;;;2106660;28;20036;-68
2021/10/07 04:49:23;;;;;;;11.38;7.78;;;6.90;99.90;;;;;;2106777;28;20023;-68
2021/10/07 04:50:24;;;;;;;12.63;8.27;;;6.90;99.90;;;;;;2106728;28;20032;-69
2021/10/07 04:51:24;;;;;;;12.73;7.63;;;6.90;99.90;;;;;;2106275;28;20051;-69
2021/10/07 04:52:25;;;;;;;13.93;7.70;;;6.90;99.90;;;;;;2106876;28;20020;-69
2021/10/07 04:53:26;;;;;;;11.32;7.43;;;6.90;99.90;;;;;;2106653;28;20077;-69
2021/10/07 04:54:26;;;;;;;11.63;7.55;;;6.90;99.90;;;;;;2106740;28;20085;-69
2021/10/07 04:55:27;;;;;;;11.23;6.90;;;6.90;99.90;;;;;;2106622;28;20432;-69
2021/10/07 04:56:28;;;;;;;10.52;6.72;;;6.90;99.90;;;;;;2106571;28;20031;-69
2021/10/07 04:57:29;;;;;;;11.70;7.15;;;6.90;99.90;;;;;;2106688;28;20474;-68
2021/10/07 04:58:29;;;;;;;10.38;7.13;;;6.90;99.90;;;;;;2106984;28;20056;-68
2021/10/07 04:59:30;;;;;;;9.55;7.10;;;6.90;99.90;;;;;;2106709;28;20552;-69
2021/10/07 05:00:30;;;;;;;11.02;6.80;;;6.80;99.90;;;;;;2106442;28;20478;-70
2021/10/07 05:01:31;;;;;;;10.95;7.03;;;6.90;99.90;;;;;;2106064;28;20028;-69
2021/10/07 05:02:35;;;;;;;12.25;7.50;;;6.90;99.90;;;;;;2106497;28;20056;-68
2021/10/07 05:03:36;;;;;;;10.45;7.75;;;6.90;99.90;;;;;;2106384;28;20028;-69
2021/10/07 05:04:36;;;;;;;11.15;7.93;;;6.90;99.90;;;;;;2106409;28;20475;-70
2021/10/07 05:05:37;;;;;;;10.00;7.70;;;6.90;99.90;;;;;;2106386;28;20451;-69
2021/10/07 05:06:37;;;;;;;14.15;8.43;;;6.90;99.90;;;;;;2106596;28;20063;-69
2021/10/07 05:07:39;;;;;;;11.27;7.88;;;6.90;99.90;;;;;;2106489;28;20034;-69
2021/10/07 05:08:40;;;;;;;12.65;8.18;;;6.90;99.90;;;;;;2106713;28;20403;-69
2021/10/07 05:09:40;;;;;;;13.98;8.15;;;6.90;99.90;;;;;;2106766;28;20056;-70
2021/10/07 05:10:41;;;;;;;13.88;8.13;;;6.90;99.90;;;;;;2106584;28;20161;-69
2021/10/07 05:11:42;;;;;;;13.98;8.15;;;6.80;99.90;;;;;;2106093;28;20107;-69
2021/10/07 05:12:42;;;;;;;11.48;7.65;;;6.90;99.90;;;;;;2106655;28;20395;-69
2021/10/07 05:13:43;;;;;;;13.80;7.82;;;6.80;99.90;;;;;;2106591;28;20510;-70
2021/10/07 05:14:43;;;;;;;12.00;7.88;;;6.80;99.90;;;;;;2106367;28;20035;-69
2021/10/07 05:15:44;;;;;;;11.88;7.80;;;6.80;99.90;;;;;;2106401;28;20035;-68
2021/10/07 05:16:45;;;;;;;12.85;7.93;;;6.80;99.90;;;;;;2106436;28;20101;-69
2021/10/07 05:17:45;;;;;;;12.85;8.25;;;6.80;99.90;;;;;;2106481;28;20042;-69
2021/10/07 05:18:46;;;;;;;14.63;7.78;;;6.80;99.90;;;;;;2106410;28;20456;-69
2021/10/07 05:19:46;;;;;;;12.73;7.68;;;6.80;99.90;;;;;;2106463;28;20468;-69
2021/10/07 05:20:49;;;;;;;14.70;7.63;;;6.80;99.90;;;;;;2106353;28;20042;-70
2021/10/07 05:21:49;;;;;;;14.02;8.05;;;6.80;99.90;;;;;;2106119;28;20032;-69
2021/10/07 05:22:50;;;;;;;14.70;8.43;;;6.80;99.90;;;;;;2106359;28;20034;-69
2021/10/07 05:23:50;;;;;;;12.63;7.95;;;6.80;99.90;;;;;;2106339;28;20689;-69
2021/10/07 05:24:51;;;;;;;11.23;7.40;;;6.80;99.90;;;;;;2105740;28;20032;-69